Time;durP1;ratioP1;P1;durP2;ratioP2;P2;SDS_P1;SDS_P2;PMS_P1;PMS_P2;Temp;Humidity;BMP_temperature;BMP_pressure;BME280_temperature;BME280_humidity;BME280_pressure;Samples;Min_cycle;Max_cycle;Signal;HPM_P1;HPM_P2
2022/05/17 00:02:18;;;;;;;14.27;6.07;;;16.60;99.90;;;;;;5053494;28;20489;-68
2022/05/17 00:04:43;;;;;;;15.10;6.38;;;16.60;99.90;;;;;;5052762;28;20106;-67
2022/05/17 00:07:09;;;;;;;13.68;5.93;;;16.60;99.90;;;;;;5054687;28;20044;-67
2022/05/17 00:09:35;;;;;;;14.93;5.95;;;16.60;99.90;;;;;;5037365;28;20397;-67
2022/05/17 00:12:00;;;;;;;16.58;6.60;;;16.50;99.90;;;;;;5052895;28;20040;-68
2022/05/17 00:14:27;;;;;;;16.10;6.35;;;16.50;99.90;;;;;;5051414;28;20202;-67
2022/05/17 00:16:53;;;;;;;14.95;6.03;;;16.30;99.90;;;;;;5052229;28;20037;-67
2022/05/17 00:19:20;;;;;;;14.95;5.78;;;16.30;99.90;;;;;;5038143;28;20041;-68
2022/05/17 00:21:47;;;;;;;16.58;6.22;;;16.30;99.90;;;;;;5037198;28;20045;-68
2022/05/17 00:24:15;;;;;;;12.77;5.63;;;16.20;99.90;;;;;;5053399;28;20037;-68
2022/05/17 00:26:41;;;;;;;18.23;6.40;;;16.30;99.90;;;;;;5054380;28;20507;-68
2022/05/17 00:29:07;;;;;;;17.88;6.75;;;16.20;99.90;;;;;;5037662;28;20086;-67
2022/05/17 00:31:34;;;;;;;14.23;5.78;;;16.10;99.90;;;;;;5051871;28;20041;-69
2022/05/17 00:34:00;;;;;;;14.40;5.97;;;16.20;99.90;;;;;;5053005;28;20041;-68
2022/05/17 00:36:26;;;;;;;17.55;5.80;;;16.20;99.90;;;;;;5037585;28;20041;-67
2022/05/17 00:38:52;;;;;;;16.15;5.97;;;16.20;99.90;;;;;;5036889;28;20033;-68
2022/05/17 00:41:17;;;;;;;15.45;6.35;;;16.10;99.90;;;;;;5054109;28;20063;-67
2022/05/17 00:46:46;;;;;;;16.85;5.63;;;16.10;99.90;;;;;;5054022;28;20509;-67
2022/05/17 00:49:17;;;;;;;14.13;5.72;;;16.10;99.90;;;;;;5037304;28;20123;-67
2022/05/17 00:51:44;;;;;;;17.83;6.43;;;16.10;99.90;;;;;;5053059;28;20497;-67
2022/05/17 00:54:14;;;;;;;13.23;5.95;;;16.10;99.90;;;;;;5053030;28;20041;-66
2022/05/17 00:56:49;;;;;;;15.77;5.70;;;16.10;99.90;;;;;;5037170;28;20037;-66
2022/05/17 00:59:15;;;;;;;16.02;5.70;;;16.10;99.90;;;;;;5052539;28;20041;-67
2022/05/17 01:01:41;;;;;;;14.55;5.30;;;16.00;99.90;;;;;;5049574;28;20057;-67
2022/05/17 01:04:14;;;;;;;14.63;5.38;;;16.10;99.90;;;;;;5051973;28;20128;-67
2022/05/17 01:06:46;;;;;;;15.30;5.20;;;16.20;99.90;;;;;;5017383;28;20069;-67
2022/05/17 01:09:12;;;;;;;12.23;5.35;;;16.10;99.90;;;;;;5026061;28;20037;-67
2022/05/17 01:11:39;;;;;;;12.32;5.03;;;16.00;99.90;;;;;;5036989;28;20035;-68
2022/05/17 01:16:49;;;;;;;16.33;6.30;;;15.80;99.90;;;;;;5053433;28;20049;-68
2022/05/17 01:19:15;;;;;;;12.43;5.13;;;15.90;99.90;;;;;;5036102;28;20037;-67
2022/05/17 01:21:41;;;;;;;15.48;6.65;;;15.90;99.90;;;;;;5035915;28;20068;-67
2022/05/17 01:24:07;;;;;;;14.70;4.85;;;15.80;99.90;;;;;;5036477;28;20460;-68
2022/05/17 01:26:37;;;;;;;12.40;4.85;;;15.80;99.90;;;;;;5053169;28;20083;-68
2022/05/17 01:29:05;;;;;;;14.93;5.10;;;15.80;99.90;;;;;;5052662;28;20443;-68
2022/05/17 01:31:32;;;;;;;12.90;5.30;;;15.80;99.90;;;;;;5051125;28;20045;-68
2022/05/17 01:33:58;;;;;;;14.45;5.10;;;15.80;99.90;;;;;;5053128;28;20086;-67
2022/05/17 01:36:24;;;;;;;17.10;5.63;;;15.80;99.90;;;;;;5052838;28;20045;-68
2022/05/17 01:38:51;;;;;;;16.17;5.45;;;15.70;99.90;;;;;;5050862;28;20486;-68
2022/05/17 01:41:21;;;;;;;12.48;5.32;;;15.60;99.90;;;;;;5051809;28;20037;-68
2022/05/17 01:43:47;;;;;;;15.18;5.03;;;15.70;99.90;;;;;;5052923;28;20037;-67
2022/05/17 01:46:13;;;;;;;16.88;5.95;;;15.60;99.90;;;;;;5036092;28;20051;-68
2022/05/17 01:48:39;;;;;;;12.68;5.28;;;15.50;99.90;;;;;;5035592;28;20053;-67
2022/05/17 01:51:07;;;;;;;13.20;5.00;;;15.60;99.90;;;;;;5036054;28;20063;-68
2022/05/17 01:53:33;;;;;;;15.52;5.22;;;15.60;99.90;;;;;;5035365;28;20224;-67
2022/05/17 01:56:01;;;;;;;15.95;5.47;;;15.60;99.90;;;;;;5052596;28;20037;-68
2022/05/17 01:58:26;;;;;;;13.35;4.70;;;15.70;99.90;;;;;;5034126;28;20036;-69
2022/05/17 02:00:52;;;;;;;19.35;5.32;;;15.80;99.90;;;;;;5033477;28;20060;-68
2022/05/17 02:03:17;;;;;;;13.40;4.80;;;15.80;99.90;;;;;;5035176;28;20049;-68
2022/05/17 02:05:43;;;;;;;12.70;4.45;;;15.70;99.90;;;;;;5052602;28;20049;-68
2022/05/17 02:08:09;;;;;;;14.00;5.03;;;15.70;99.90;;;;;;5040164;28;20052;-69
2022/05/17 02:10:34;;;;;;;13.52;4.80;;;15.70;99.90;;;;;;5014775;28;20114;-68
2022/05/17 02:13:00;;;;;;;13.00;4.97;;;15.70;99.90;;;;;;5028845;28;20049;-68
2022/05/17 02:15:26;;;;;;;13.95;5.70;;;15.70;99.90;;;;;;5028187;28;20065;-68
2022/05/17 02:17:52;;;;;;;13.93;4.72;;;15.70;99.90;;;;;;5035125;28;20033;-68
2022/05/17 02:20:18;;;;;;;14.70;5.45;;;15.70;99.90;;;;;;5035499;28;20033;-68
2022/05/17 02:22:44;;;;;;;11.50;4.72;;;15.70;99.90;;;;;;5041608;28;20633;-68
2022/05/17 02:25:11;;;;;;;12.02;4.97;;;15.70;99.90;;;;;;5029738;28;20499;-68
2022/05/17 02:27:37;;;;;;;14.93;5.70;;;15.70;99.90;;;;;;5014030;28;20123;-68
2022/05/17 02:30:06;;;;;;;12.82;5.30;;;15.70;99.90;;;;;;5022571;28;20033;-68
2022/05/17 02:32:32;;;;;;;12.63;5.55;;;15.70;99.90;;;;;;5023571;28;20046;-68
2022/05/17 02:34:57;;;;;;;14.82;6.07;;;15.70;99.90;;;;;;5030325;28;20425;-68
2022/05/17 02:37:23;;;;;;;15.65;5.57;;;15.60;99.90;;;;;;5027213;28;20029;-67
2022/05/17 02:39:49;;;;;;;14.95;5.82;;;15.60;99.90;;;;;;5024228;28;20040;-68
2022/05/17 02:42:14;;;;;;;14.50;5.93;;;15.70;99.90;;;;;;5026775;28;20501;-68
2022/05/17 02:44:40;;;;;;;15.35;6.10;;;15.60;99.90;;;;;;5022520;28;20103;-68
2022/05/17 02:47:06;;;;;;;12.18;5.65;;;15.50;99.90;;;;;;5035446;28;20060;-68
2022/05/17 02:49:32;;;;;;;16.95;6.47;;;15.60;99.90;;;;;;5023624;28;20047;-68
2022/05/17 02:52:02;;;;;;;15.85;6.18;;;15.60;99.90;;;;;;5024436;28;20045;-68
2022/05/17 02:54:28;;;;;;;13.23;5.65;;;15.60;99.90;;;;;;5023200;28;20041;-68
2022/05/17 02:56:53;;;;;;;15.90;6.40;;;15.60;99.90;;;;;;5011572;28;20059;-68
2022/05/17 02:59:20;;;;;;;13.82;6.40;;;15.60;99.90;;;;;;5025254;28;20067;-68
2022/05/17 03:01:46;;;;;;;14.38;6.45;;;15.50;99.90;;;;;;5013133;28;20188;-67
2022/05/17 03:04:13;;;;;;;13.45;6.15;;;15.50;99.90;;;;;;5028326;28;20076;-68
2022/05/17 03:06:43;;;;;;;13.98;6.18;;;15.50;99.90;;;;;;5035563;28;20095;-67
2022/05/17 03:09:09;;;;;;;13.52;6.38;;;15.40;99.90;;;;;;5023041;28;20549;-68
2022/05/17 03:11:37;;;;;;;15.15;7.50;;;15.50;99.90;;;;;;5026902;28;20044;-67
2022/05/17 03:14:03;;;;;;;14.45;6.65;;;15.40;99.90;;;;;;5023279;28;20597;-68
2022/05/17 03:16:33;;;;;;;15.18;7.10;;;15.40;99.90;;;;;;5031961;28;21387;-68
2022/05/17 03:19:01;;;;;;;14.52;6.63;;;15.40;99.90;;;;;;5032863;28;20037;-67
2022/05/17 03:21:27;;;;;;;16.38;6.55;;;15.10;99.90;;;;;;5037222;28;20045;-67
2022/05/17 03:23:53;;;;;;;13.90;5.78;;;15.00;99.90;;;;;;5014445;28;20040;-68
2022/05/17 03:26:19;;;;;;;12.07;6.30;;;15.00;99.90;;;;;;5020128;28;20064;-67
2022/05/17 03:28:44;;;;;;;18.23;7.35;;;15.00;99.90;;;;;;5034222;28;20770;-67
2022/05/17 03:31:11;;;;;;;17.30;6.85;;;14.90;99.90;;;;;;5026040;28;20115;-68
2022/05/17 03:33:37;;;;;;;15.90;6.47;;;14.90;99.90;;;;;;5028370;28;20047;-68
2022/05/17 03:36:07;;;;;;;14.10;6.60;;;15.00;99.90;;;;;;5029245;28;20114;-68
2022/05/17 03:38:34;;;;;;;14.57;6.30;;;14.80;99.90;;;;;;5054069;28;20519;-68
2022/05/17 03:41:00;;;;;;;14.15;6.13;;;14.80;99.90;;;;;;5037803;28;20029;-68
2022/05/17 03:43:27;;;;;;;12.02;6.35;;;14.70;99.90;;;;;;5038521;28;20507;-68
2022/05/17 03:45:53;;;;;;;13.13;6.38;;;14.70;99.90;;;;;;5037528;28;20453;-68
2022/05/17 03:48:19;;;;;;;12.43;6.10;;;14.60;99.90;;;;;;5054756;28;20121;-68
2022/05/17 03:50:45;;;;;;;13.85;6.32;;;14.60;99.90;;;;;;5038046;28;20120;-68
2022/05/17 03:53:11;;;;;;;11.68;6.07;;;14.60;99.90;;;;;;5037980;28;20757;-68
2022/05/17 03:55:37;;;;;;;15.88;6.50;;;14.60;99.90;;;;;;5009695;28;20603;-68
2022/05/17 03:58:02;;;;;;;16.08;6.68;;;14.60;99.90;;;;;;5026758;28;20079;-68
2022/05/17 04:00:28;;;;;;;15.02;7.32;;;14.70;99.90;;;;;;5026934;28;20041;-67
2022/05/17 04:02:54;;;;;;;15.50;6.70;;;14.70;99.90;;;;;;5030156;28;20067;-67
2022/05/17 04:05:19;;;;;;;13.60;6.63;;;14.80;99.90;;;;;;5016507;28;20106;-68
2022/05/17 04:07:45;;;;;;;15.82;7.00;;;14.80;99.90;;;;;;5012832;28;20044;-68
2022/05/17 04:10:13;;;;;;;15.23;6.60;;;14.80;99.90;;;;;;5027940;28;20072;-69
2022/05/17 04:12:39;;;;;;;11.63;6.18;;;14.80;99.90;;;;;;5012326;28;20464;-68
2022/05/17 04:15:07;;;;;;;12.23;6.47;;;14.70;99.90;;;;;;5030682;28;20036;-68
2022/05/17 04:17:32;;;;;;;14.23;6.05;;;14.60;99.90;;;;;;5018262;28;21458;-68
2022/05/17 04:19:59;;;;;;;11.75;6.28;;;14.60;99.90;;;;;;5034106;28;21458;-68
2022/05/17 04:22:25;;;;;;;12.18;6.53;;;14.50;99.90;;;;;;5037015;28;20040;-68
2022/05/17 04:24:57;;;;;;;14.02;6.50;;;14.60;99.90;;;;;;5031271;28;20099;-69
2022/05/17 04:27:24;;;;;;;14.10;6.05;;;14.70;99.90;;;;;;5017987;28;20033;-69
2022/05/17 04:29:51;;;;;;;12.35;6.38;;;14.80;99.90;;;;;;5033195;28;20084;-69
2022/05/17 04:32:16;;;;;;;15.20;6.63;;;14.70;99.90;;;;;;5031868;28;20041;-69
2022/05/17 04:34:42;;;;;;;14.63;7.13;;;14.80;99.90;;;;;;5012313;28;20189;-69
2022/05/17 04:37:08;;;;;;;15.52;6.57;;;14.90;99.90;;;;;;5033790;28;20036;-67
2022/05/17 04:39:34;;;;;;;11.98;6.00;;;15.00;99.90;;;;;;5025836;28;21066;-67
2022/05/17 04:42:00;;;;;;;15.55;6.15;;;15.10;99.90;;;;;;5025464;28;20045;-66
2022/05/17 04:44:26;;;;;;;16.48;6.43;;;15.10;99.90;;;;;;5009592;28;20049;-67
2022/05/17 04:46:52;;;;;;;14.98;6.63;;;15.10;99.90;;;;;;5026375;28;20394;-66
2022/05/17 04:49:18;;;;;;;13.27;6.10;;;15.20;99.90;;;;;;5012699;28;20041;-69
2022/05/17 04:51:44;;;;;;;18.20;6.75;;;15.30;99.90;;;;;;5024951;28;20040;-69
2022/05/17 04:54:10;;;;;;;12.63;6.10;;;15.20;99.90;;;;;;5012471;28;20049;-69
2022/05/17 04:56:36;;;;;;;15.93;6.07;;;15.20;99.90;;;;;;5033758;28;20540;-68
2022/05/17 04:59:03;;;;;;;15.48;6.38;;;15.40;99.90;;;;;;5013545;28;20045;-68
2022/05/17 05:01:29;;;;;;;15.43;6.93;;;15.40;99.90;;;;;;5039686;28;20417;-68
2022/05/17 05:03:55;;;;;;;16.40;7.03;;;15.30;99.90;;;;;;5021913;28;20069;-69
2022/05/17 05:06:21;;;;;;;14.00;6.10;;;15.30;99.90;;;;;;5027656;28;20132;-68
2022/05/17 05:08:46;;;;;;;14.57;6.35;;;15.40;99.90;;;;;;5011820;28;20480;-68
2022/05/17 05:11:13;;;;;;;12.98;5.95;;;15.50;99.90;;;;;;5024143;28;20047;-68
2022/05/17 05:13:39;;;;;;;15.40;5.57;;;15.40;99.90;;;;;;5026195;28;20041;-68
2022/05/17 05:16:10;;;;;;;14.32;6.13;;;15.50;99.90;;;;;;5029533;28;20405;-68
2022/05/17 05:18:35;;;;;;;20.50;6.63;;;15.60;99.90;;;;;;5014281;28;20052;-68
2022/05/17 05:21:12;;;;;;;16.80;5.50;;;15.50;99.90;;;;;;5018347;28;20043;-68
2022/05/17 05:23:40;;;;;;;17.67;6.25;;;15.50;99.90;;;;;;5019285;28;20056;-69
2022/05/17 05:26:06;;;;;;;12.68;4.95;;;15.40;99.90;;;;;;5044059;28;20040;-69
2022/05/17 05:28:33;;;;;;;16.08;5.57;;;15.50;99.90;;;;;;5030961;28;20093;-68
2022/05/17 05:30:59;;;;;;;12.88;4.90;;;15.70;99.90;;;;;;5023858;28;20044;-69
2022/05/17 05:33:25;;;;;;;16.73;5.53;;;15.70;99.90;;;;;;5029078;28;20049;-69
2022/05/17 05:35:52;;;;;;;16.70;5.20;;;15.60;99.90;;;;;;5016770;28;20044;-68
2022/05/17 05:38:18;;;;;;;14.77;5.53;;;15.60;99.90;;;;;;5032760;28;20481;-69
2022/05/17 05:40:44;;;;;;;15.23;5.60;;;15.50;99.90;;;;;;5012632;28;20041;-69
2022/05/17 05:43:09;;;;;;;14.80;5.78;;;15.60;99.90;;;;;;5013267;28;20533;-68
2022/05/17 05:45:35;;;;;;;13.65;5.43;;;15.70;99.90;;;;;;5010312;28;20512;-69
2022/05/17 05:48:01;;;;;;;16.08;5.88;;;15.80;99.90;;;;;;5025639;28;20145;-69
2022/05/17 05:50:27;;;;;;;15.68;5.25;;;15.80;99.90;;;;;;5029857;28;20049;-69
2022/05/17 05:53:04;;;;;;;14.07;5.72;;;15.90;99.90;;;;;;5023833;28;20505;-69
2022/05/17 05:55:31;;;;;;;14.25;5.72;;;16.00;99.90;;;;;;5014615;28;20038;-69
2022/05/17 05:57:57;;;;;;;13.27;5.13;;;16.20;99.90;;;;;;5012309;28;20037;-69
2022/05/17 06:00:22;;;;;;;14.82;6.18;;;16.30;99.90;;;;;;5031105;28;20067;-69
2022/05/17 06:02:48;;;;;;;17.65;6.05;;;16.50;99.90;;;;;;5025755;28;20087;-68
2022/05/17 06:05:14;;;;;;;15.07;5.53;;;16.60;99.90;;;;;;5029916;28;20095;-68
2022/05/17 06:07:40;;;;;;;16.58;5.60;;;16.80;99.90;;;;;;5028704;28;20045;-69
2022/05/17 06:10:07;;;;;;;15.38;5.65;;;16.90;99.90;;;;;;5024393;28;20099;-69
2022/05/17 06:12:32;;;;;;;13.98;5.78;;;16.70;99.90;;;;;;5042002;28;20116;-69
2022/05/17 06:14:58;;;;;;;13.18;5.35;;;16.80;99.90;;;;;;5016407;28;20441;-68
2022/05/17 06:17:27;;;;;;;17.65;6.60;;;16.80;99.90;;;;;;5025987;28;20048;-69
2022/05/17 06:19:54;;;;;;;14.30;5.30;;;16.90;99.90;;;;;;5024233;28;20055;-68
2022/05/17 06:22:19;;;;;;;13.73;5.13;;;16.90;99.90;;;;;;5017624;28;20401;-68
2022/05/17 06:24:45;;;;;;;16.83;5.93;;;17.00;99.90;;;;;;5023907;28;20044;-69
2022/05/17 06:27:11;;;;;;;15.48;5.22;;;17.10;99.90;;;;;;5026674;28;20037;-69
2022/05/17 06:29:36;;;;;;;17.02;5.50;;;17.20;99.90;;;;;;5033821;28;20048;-69
2022/05/17 06:32:02;;;;;;;16.55;5.25;;;17.30;99.90;;;;;;5032373;28;20041;-69
2022/05/17 06:34:27;;;;;;;14.35;4.75;;;17.40;99.90;;;;;;5022604;28;20068;-69
2022/05/17 06:36:53;;;;;;;14.20;5.00;;;17.40;99.90;;;;;;5011343;28;20498;-69
2022/05/17 06:39:19;;;;;;;12.70;4.93;;;17.40;99.90;;;;;;5025337;28;20490;-69
2022/05/17 06:41:44;;;;;;;14.07;4.63;;;17.40;99.90;;;;;;5023873;28;20466;-68
2022/05/17 06:44:10;;;;;;;12.10;4.60;;;17.60;99.90;;;;;;5015147;28;20485;-69
2022/05/17 06:46:36;;;;;;;12.90;5.05;;;17.60;99.90;;;;;;5009654;28;20082;-69
2022/05/17 06:49:02;;;;;;;15.50;4.68;;;17.60;99.90;;;;;;5028780;28;20182;-69
2022/05/17 06:51:27;;;;;;;13.55;4.80;;;17.60;99.90;;;;;;5023086;28;20490;-69
2022/05/17 06:53:53;;;;;;;15.00;4.90;;;17.60;99.90;;;;;;5015027;28;20045;-69
2022/05/17 06:56:19;;;;;;;13.75;5.35;;;17.70;99.90;;;;;;5007775;28;20462;-69
2022/05/17 06:58:44;;;;;;;12.77;4.90;;;17.70;99.90;;;;;;5018509;28;20038;-69
2022/05/17 07:01:10;;;;;;;11.00;4.78;;;17.80;99.90;;;;;;5040103;28;20065;-69
2022/05/17 07:03:36;;;;;;;14.13;4.90;;;17.90;99.90;;;;;;5031381;28;20497;-69
2022/05/17 07:06:02;;;;;;;12.68;5.43;;;17.90;99.90;;;;;;5032971;28;20042;-69
2022/05/17 07:08:28;;;;;;;13.20;4.50;;;17.90;99.90;;;;;;5038486;28;20044;-69
2022/05/17 07:13:37;;;;;;;14.43;5.75;;;18.00;99.90;;;;;;5031049;28;20539;-69
2022/05/17 07:16:03;;;;;;;15.90;5.03;;;18.10;99.90;;;;;;5033119;28;20055;-68
2022/05/17 07:18:29;;;;;;;13.40;5.15;;;18.10;99.90;;;;;;5032845;28;20044;-69
2022/05/17 07:20:55;;;;;;;13.75;5.70;;;18.30;99.90;;;;;;5032891;28;20056;-69
2022/05/17 07:23:21;;;;;;;12.05;5.60;;;18.40;99.90;;;;;;5030785;28;20051;-69
2022/05/17 07:25:47;;;;;;;15.45;5.20;;;18.50;99.90;;;;;;5028764;28;20049;-68
2022/05/17 07:28:19;;;;;;;17.40;5.45;;;18.70;99.90;;;;;;5025614;28;21532;-69
2022/05/17 07:30:48;;;;;;;17.38;6.00;;;18.60;99.90;;;;;;5052993;28;20068;-69
2022/05/17 07:33:14;;;;;;;16.67;5.00;;;18.60;99.90;;;;;;5042827;28;20049;-69
2022/05/17 07:35:40;;;;;;;14.82;5.68;;;18.60;99.90;;;;;;5038560;28;20032;-69
2022/05/17 07:38:06;;;;;;;14.02;5.32;;;18.70;99.90;;;;;;5020728;28;20662;-68
2022/05/17 07:40:32;;;;;;;17.95;5.32;;;18.70;99.90;;;;;;5030030;28;20038;-68
2022/05/17 07:43:00;;;;;;;17.30;5.22;;;18.70;99.90;;;;;;5034826;28;20049;-68
2022/05/17 07:45:26;;;;;;;13.27;5.32;;;18.70;99.90;;;;;;5024287;28;20052;-68
2022/05/17 07:47:52;;;;;;;14.25;4.30;;;18.80;99.90;;;;;;5049454;28;20051;-68
2022/05/17 07:50:17;;;;;;;12.10;4.93;;;18.80;99.90;;;;;;5027257;28;20036;-68
2022/05/17 07:52:43;;;;;;;11.50;4.35;;;18.80;99.90;;;;;;5043336;28;20029;-68
2022/05/17 07:55:10;;;;;;;14.85;4.53;;;18.90;99.90;;;;;;5049778;28;20040;-68
2022/05/17 07:57:37;;;;;;;11.73;4.63;;;19.00;99.90;;;;;;5049826;28;20095;-68
2022/05/17 08:00:05;;;;;;;12.52;4.90;;;18.90;99.90;;;;;;5054404;28;20086;-68
2022/05/17 08:02:34;;;;;;;13.57;4.70;;;19.00;99.90;;;;;;5039377;28;20064;-68
2022/05/17 08:05:00;;;;;;;14.02;5.82;;;19.10;99.90;;;;;;5055913;28;20124;-68
2022/05/17 08:07:25;;;;;;;11.32;4.60;;;19.30;99.90;;;;;;5057996;28;20465;-68
2022/05/17 08:09:51;;;;;;;14.55;4.85;;;19.40;99.90;;;;;;5043481;28;20044;-68
2022/05/17 08:12:17;;;;;;;14.02;5.10;;;19.40;99.90;;;;;;5052623;28;20033;-80
2022/05/17 08:14:44;;;;;;;13.32;4.55;;;19.50;99.90;;;;;;5036974;28;20039;-79
2022/05/17 08:17:09;;;;;;;11.25;3.67;;;19.50;99.90;;;;;;5054459;28;20464;-69
2022/05/17 08:19:39;;;;;;;11.95;4.10;;;19.50;99.90;;;;;;5052295;28;20061;-68
2022/05/17 08:22:07;;;;;;;10.75;4.07;;;19.60;99.90;;;;;;5053334;28;20110;-68
2022/05/17 08:27:31;;;;;;;10.73;4.65;;;19.60;99.90;;;;;;5053180;28;20055;-68
2022/05/17 08:27:36;;;;;;;13.90;4.40;;;19.60;99.90;;;;;;5054011;28;20087;-69
2022/05/17 08:30:10;;;;;;;12.10;4.32;;;19.70;99.90;;;;;;5050144;28;20091;-68
2022/05/17 08:35:20;;;;;;;13.90;4.32;;;20.10;99.90;;;;;;5052264;28;20397;-69
2022/05/17 08:37:46;;;;;;;12.52;4.03;;;20.10;99.90;;;;;;5052028;28;20033;-69
2022/05/17 08:40:20;;;;;;;11.95;4.10;;;20.10;99.90;;;;;;5045628;28;20117;-69
2022/05/17 08:43:13;;;;;;;11.40;4.07;;;20.20;99.90;;;;;;5034397;28;20462;-69
2022/05/17 08:45:50;;;;;;;11.13;3.97;;;20.40;99.90;;;;;;5037185;28;20401;-69
2022/05/17 08:48:17;;;;;;;10.65;3.45;;;20.40;99.90;;;;;;5052492;28;20048;-69
2022/05/17 08:50:45;;;;;;;12.05;4.22;;;20.60;99.90;;;;;;5036528;28;20083;-69
2022/05/17 08:53:16;;;;;;;12.82;3.72;;;20.70;99.90;;;;;;5035602;28;20497;-68
2022/05/17 08:55:44;;;;;;;14.27;4.00;;;20.70;99.90;;;;;;5048599;28;20041;-69
2022/05/17 08:58:17;;;;;;;11.15;4.50;;;20.80;99.90;;;;;;5051010;28;20040;-68
2022/05/17 09:00:47;;;;;;;11.80;3.85;;;20.90;99.90;;;;;;5052562;28;20063;-69
2022/05/17 09:03:36;;;;;;;12.57;3.75;;;20.90;99.90;;;;;;5036737;28;20037;-69
2022/05/17 09:06:09;;;;;;;9.98;3.80;;;21.10;99.90;;;;;;5048771;28;20044;-69
2022/05/17 09:08:46;;;;;;;10.90;3.50;;;21.20;99.90;;;;;;5051210;28;20041;-69
2022/05/17 09:11:31;;;;;;;11.98;3.33;;;21.20;99.90;;;;;;5052958;28;20094;-69
2022/05/17 09:14:15;;;;;;;10.48;2.55;;;21.10;99.90;;;;;;5052105;28;20463;-69
2022/05/17 09:16:58;;;;;;;10.85;3.08;;;21.10;99.90;;;;;;5025234;28;20116;-69
2022/05/17 09:19:24;;;;;;;10.25;2.75;;;21.20;99.90;;;;;;5037518;28;20049;-69
2022/05/17 09:21:49;;;;;;;10.80;2.33;;;21.30;99.90;;;;;;5051893;28;20516;-69
2022/05/17 09:24:18;;;;;;;10.38;2.33;;;21.40;99.90;;;;;;5051549;28;20107;-69
2022/05/17 09:27:12;;;;;;;6.80;2.20;;;21.50;99.90;;;;;;5052973;28;20074;-69
2022/05/17 09:29:49;;;;;;;7.38;2.22;;;21.60;99.90;;;;;;5043007;28;20107;-69
2022/05/17 09:32:44;;;;;;;12.38;2.58;;;21.80;99.90;;;;;;5035247;28;20049;-69
2022/05/17 09:35:20;;;;;;;8.88;2.17;;;21.70;99.90;;;;;;5038047;28;20044;-69
2022/05/17 09:38:02;;;;;;;7.75;2.25;;;21.80;99.90;;;;;;5033323;28;20033;-70
2022/05/17 09:40:35;;;;;;;10.38;2.90;;;21.80;99.90;;;;;;5032257;28;20669;-69
2022/05/17 09:43:05;;;;;;;8.23;2.38;;;21.80;99.90;;;;;;5052032;28;20045;-69
2022/05/17 09:54:33;;;;;;;;;;;22.10;99.90;;;;;;5050520;28;20072;-69
2022/05/17 09:57:25;;;;;;;9.98;2.30;;;22.10;99.90;;;;;;5035528;28;20356;-70
2022/05/17 10:00:02;;;;;;;9.38;2.25;;;22.10;99.90;;;;;;5049167;28;20064;-70
2022/05/17 10:02:33;;;;;;;10.48;2.25;;;22.20;99.50;;;;;;5052288;28;20055;-69
2022/05/17 10:05:10;;;;;;;7.45;2.05;;;22.30;99.90;;;;;;5051408;28;20198;-70
2022/05/17 10:07:36;;;;;;;8.57;2.05;;;22.40;99.10;;;;;;5052684;28;20087;-70
2022/05/17 10:10:22;;;;;;;8.13;2.17;;;22.40;99.90;;;;;;5035873;28;20040;-69
2022/05/17 10:12:51;;;;;;;10.27;2.83;;;22.50;99.90;;;;;;5033875;28;20090;-69
2022/05/17 10:15:19;;;;;;;10.50;2.35;;;22.50;99.10;;;;;;5031568;28;20029;-70
2022/05/17 10:17:56;;;;;;;7.80;2.15;;;22.50;99.50;;;;;;5050181;28;20116;-70
2022/05/17 10:20:35;;;;;;;9.50;2.20;;;22.60;98.30;;;;;;5038087;28;20041;-70
2022/05/17 10:23:06;;;;;;;6.78;1.90;;;22.50;98.00;;;;;;5048364;28;20082;-69
2022/05/17 10:25:44;;;;;;;9.93;2.13;;;22.70;96.50;;;;;;5049647;28;20125;-70
2022/05/17 10:28:29;;;;;;;11.73;2.67;;;22.70;96.80;;;;;;5033873;28;20044;-69
2022/05/17 10:30:59;;;;;;;10.52;1.85;;;22.70;96.40;;;;;;5034145;28;20106;-70
2022/05/17 10:33:36;;;;;;;8.07;1.67;;;22.60;95.20;;;;;;5034756;28;20045;-70
2022/05/17 10:36:18;;;;;;;8.10;1.80;;;22.50;98.30;;;;;;5050111;28;20155;-69
2022/05/17 10:38:54;;;;;;;;;;;22.60;98.40;;;;;;5052491;28;20052;-69
2022/05/17 10:41:19;;;;;;;11.52;1.92;;;22.60;97.50;;;;;;5042744;28;20270;-69
2022/05/17 10:43:48;;;;;;;8.07;1.50;;;22.70;97.90;;;;;;5046455;28;20036;-69
2022/05/17 10:46:21;;;;;;;8.18;1.55;;;22.70;96.20;;;;;;5051250;28;20496;-69
2022/05/17 10:48:58;;;;;;;6.35;1.60;;;22.70;93.10;;;;;;5051331;28;20040;-69
2022/05/17 10:51:32;;;;;;;9.30;1.75;;;22.50;95.00;;;;;;5040958;28;20044;-69
2022/05/17 10:53:58;;;;;;;5.55;1.35;;;22.60;92.10;;;;;;5036905;28;20040;-69
2022/05/17 10:56:33;;;;;;;5.25;1.38;;;22.40;94.80;;;;;;5048243;28;20048;-70
2022/05/17 10:59:18;;;;;;;8.00;1.92;;;22.50;94.20;;;;;;5024114;28;20044;-69
2022/05/17 11:01:44;;;;;;;5.80;1.40;;;22.70;91.80;;;;;;5028447;28;20179;-69
2022/05/17 11:04:27;;;;;;;7.03;1.60;;;22.80;91.10;;;;;;5030126;28;20033;-69
2022/05/17 11:07:23;;;;;;;7.97;1.63;;;22.90;87.60;;;;;;5026894;28;20047;-69
2022/05/17 11:10:07;;;;;;;7.15;1.60;;;23.10;79.60;;;;;;5025884;28;20064;-69
2022/05/17 11:12:46;;;;;;;7.53;1.48;;;23.20;84.40;;;;;;5047239;28;20037;-70
2022/05/17 11:15:35;;;;;;;9.52;1.67;;;23.10;88.80;;;;;;5036659;28;20440;-69
2022/05/17 11:18:33;;;;;;;10.13;1.67;;;23.10;88.50;;;;;;5052830;28;20064;-69
2022/05/17 11:21:08;;;;;;;7.13;1.40;;;23.20;90.40;;;;;;5027995;28;20048;-69
2022/05/17 11:23:50;;;;;;;5.57;2.00;;;23.20;89.30;;;;;;5034001;28;20087;-69
2022/05/17 11:26:28;;;;;;;15.95;2.22;;;23.20;91.00;;;;;;5034248;28;20045;-70
2022/05/17 11:29:29;;;;;;;7.60;1.73;;;23.20;91.70;;;;;;5050467;28;20107;-69
2022/05/17 11:32:15;;;;;;;5.93;1.40;;;23.30;81.10;;;;;;5039935;28;20425;-70
2022/05/17 11:34:43;;;;;;;6.57;1.58;;;23.20;85.30;;;;;;5050979;28;20436;-69
2022/05/17 11:37:31;;;;;;;4.90;1.73;;;23.30;80.10;;;;;;5049150;28;20049;-69
2022/05/17 11:39:57;;;;;;;7.15;1.55;;;23.20;82.10;;;;;;5049053;28;20163;-70
2022/05/17 11:42:33;;;;;;;4.72;1.25;;;23.10;84.40;;;;;;5032799;28;20041;-70
2022/05/17 11:45:40;;;;;;;5.55;1.48;;;23.20;76.60;;;;;;5052570;28;20040;-70
2022/05/17 11:48:15;;;;;;;5.40;1.42;;;23.00;75.20;;;;;;5050058;28;20052;-70
2022/05/17 11:50:52;;;;;;;9.43;1.55;;;23.00;69.30;;;;;;5036386;28;20037;-70
2022/05/17 11:53:24;;;;;;;8.05;1.60;;;23.00;82.70;;;;;;5054936;28;20072;-70
2022/05/17 11:56:23;;;;;;;6.32;1.30;;;23.00;69.50;;;;;;5053506;28;20076;-70
2022/05/17 11:58:54;;;;;;;7.20;1.60;;;23.00;68.00;;;;;;5055187;28;20132;-69
2022/05/17 12:01:29;;;;;;;7.15;1.50;;;23.10;69.60;;;;;;5049392;28;20545;-69
2022/05/17 12:04:07;;;;;;;7.22;1.70;;;23.10;73.30;;;;;;5051131;28;20041;-69
2022/05/17 12:06:48;;;;;;;7.65;1.60;;;23.20;75.30;;;;;;5029005;28;20032;-69
2022/05/17 12:09:22;;;;;;;6.18;1.70;;;22.90;76.10;;;;;;5051832;28;20048;-69
2022/05/17 12:12:00;;;;;;;7.35;1.63;;;22.90;80.10;;;;;;5025801;28;20049;-69
2022/05/17 12:14:49;;;;;;;8.43;1.70;;;22.90;83.40;;;;;;5043904;28;20040;-69
2022/05/17 12:17:33;;;;;;;8.48;1.65;;;22.80;87.60;;;;;;5022839;28;20049;-69
2022/05/17 12:20:11;;;;;;;7.53;1.60;;;22.60;86.50;;;;;;5052539;28;20130;-69
2022/05/17 12:22:48;;;;;;;7.35;1.50;;;22.80;87.60;;;;;;5037115;28;20056;-69
2022/05/17 12:25:40;;;;;;;7.18;1.60;;;22.70;87.50;;;;;;5053507;28;20045;-69
2022/05/17 12:28:11;;;;;;;;;;;22.80;83.50;;;;;;5052460;28;20404;-69
2022/05/17 12:30:59;;;;;;;8.03;1.70;;;22.70;85.80;;;;;;5051328;28;20262;-69
2022/05/17 12:33:33;;;;;;;9.98;1.90;;;22.70;87.10;;;;;;5048516;28;20309;-69
2022/05/17 12:36:19;;;;;;;7.90;1.50;;;22.70;89.10;;;;;;5054147;28;20037;-69
2022/05/17 12:44:45;;;;;;;8.05;1.67;;;22.70;91.60;;;;;;5049536;28;20361;-70
2022/05/17 12:47:35;;;;;;;8.32;1.85;;;22.60;91.70;;;;;;5034169;28;20512;-69
2022/05/17 12:50:01;;;;;;;7.68;1.88;;;22.60;85.40;;;;;;5052972;28;20530;-69
2022/05/17 12:52:29;;;;;;;7.57;1.48;;;22.50;91.50;;;;;;5052942;28;20041;-69
2022/05/17 12:55:00;;;;;;;5.20;1.30;;;22.40;92.90;;;;;;5051466;28;20086;-69
2022/05/17 12:57:33;;;;;;;5.82;1.33;;;22.40;91.50;;;;;;5036200;28;20047;-69
2022/05/17 13:00:29;;;;;;;6.30;1.60;;;22.20;77.40;;;;;;5053466;28;20082;-69
2022/05/17 13:02:59;;;;;;;9.95;1.70;;;22.40;85.90;;;;;;5045122;28;20045;-70
2022/05/17 13:05:51;;;;;;;6.95;1.40;;;22.50;82.40;;;;;;5052101;28;20047;-70
2022/05/17 13:08:19;;;;;;;;;;;22.50;85.20;;;;;;5053467;28;20049;-69
2022/05/17 13:11:01;;;;;;;5.63;1.45;;;22.60;89.60;;;;;;5052298;28;19916;-69
2022/05/17 13:13:30;;;;;;;6.13;1.70;;;22.70;91.50;;;;;;5032774;28;20045;-70
2022/05/17 13:16:00;;;;;;;9.32;2.00;;;22.80;93.20;;;;;;5033501;28;20033;-70
2022/05/17 13:18:40;;;;;;;7.03;1.70;;;22.60;85.40;;;;;;5038067;28;20037;-69
2022/05/17 13:21:12;;;;;;;5.65;1.60;;;22.80;91.80;;;;;;5052283;28;20121;-69
2022/05/17 13:23:38;;;;;;;8.30;1.92;;;22.90;91.90;;;;;;5036830;28;20409;-70